createdAt,value
2022-09-28T00:03:50.499Z,0.60
2022-09-28T00:09:01.396Z,0.80
2022-09-28T00:14:09.406Z,0.52
2022-09-28T00:19:17.721Z,0.52
2022-09-28T00:24:28.730Z,0.50
2022-09-28T00:29:38.470Z,0.68
2022-09-28T00:34:48.914Z,0.70
2022-09-28T00:39:59.405Z,0.68
2022-09-28T00:45:08.767Z,0.60
2022-09-28T00:50:23.035Z,0.70
2022-09-28T00:55:41.453Z,0.60
2022-09-28T01:00:49.021Z,0.60
2022-09-28T01:05:59.025Z,0.57
2022-09-28T01:11:09.489Z,0.77
2022-09-28T01:16:25.883Z,0.80
2022-09-28T01:21:49.404Z,0.50
2022-09-28T01:27:08.951Z,0.60
2022-09-28T01:32:30.501Z,0.68
2022-09-28T01:37:45.048Z,0.68
2022-09-28T01:42:59.850Z,0.98
2022-09-28T01:48:10.599Z,0.75
2022-09-28T01:53:24.262Z,0.80
2022-09-28T01:58:40.706Z,0.90
2022-09-28T02:03:55.205Z,0.75
2022-09-28T02:09:11.200Z,0.98
2022-09-28T02:14:22.613Z,1.23
2022-09-28T02:19:32.276Z,1.00
2022-09-28T02:24:43.064Z,1.23
2022-09-28T02:29:53.226Z,0.70
2022-09-28T02:35:01.055Z,0.80
2022-09-28T02:40:16.162Z,0.80
2022-09-28T02:45:37.163Z,0.82
2022-09-28T02:50:54.270Z,0.70
2022-09-28T02:56:20.431Z,1.05
2022-09-28T03:01:37.949Z,0.80
2022-09-28T03:06:51.579Z,0.82
2022-09-28T03:12:03.820Z,0.70
2022-09-28T03:17:14.039Z,0.90
2022-09-28T03:22:22.056Z,0.90
2022-09-28T03:27:29.741Z,0.75
2022-09-28T03:32:40.126Z,0.68
2022-09-28T03:37:47.603Z,0.90
2022-09-28T03:42:55.135Z,0.63
2022-09-28T03:48:05.368Z,0.60
2022-09-28T03:53:12.885Z,0.77
2022-09-28T03:58:23.220Z,0.70
2022-09-28T04:03:33.953Z,0.90
2022-09-28T04:08:43.099Z,0.88
2022-09-28T04:13:52.020Z,0.50
2022-09-28T04:19:04.236Z,0.52
2022-09-28T04:24:12.578Z,0.60
2022-09-28T04:29:21.107Z,0.60
2022-09-28T04:34:35.447Z,0.63
2022-09-28T04:39:48.221Z,0.60
2022-09-28T04:44:58.046Z,0.60
2022-09-28T04:50:09.085Z,0.70
2022-09-28T05:00:25.639Z,0.60
2022-09-28T05:05:35.727Z,0.30
2022-09-28T05:10:43.214Z,0.45
2022-09-28T05:15:58.863Z,0.40
2022-09-28T05:21:13.712Z,0.60
2022-09-28T05:26:21.551Z,0.43
2022-09-28T05:31:30.765Z,0.40
2022-09-28T05:36:42.824Z,0.47
2022-09-28T05:41:50.389Z,0.60
2022-09-28T05:46:58.809Z,0.50
2022-09-28T05:52:08.883Z,0.77
2022-09-28T05:57:17.289Z,0.50
2022-09-28T06:02:25.329Z,0.40
2022-09-28T06:07:35.485Z,0.52
2022-09-28T06:12:43.019Z,0.47
2022-09-28T06:17:50.578Z,0.50
2022-09-28T06:23:01.054Z,0.50
2022-09-28T06:28:11.953Z,0.55
2022-09-28T06:33:19.432Z,0.57
2022-09-28T06:38:29.654Z,0.50
2022-09-28T06:43:39.671Z,0.60
2022-09-28T06:48:48.026Z,0.50
2022-09-28T06:53:58.105Z,0.60
2022-09-28T06:59:06.070Z,0.70
2022-09-28T07:04:14.186Z,0.63
2022-09-28T07:09:32.141Z,1.55
2022-09-28T07:14:47.784Z,0.70
2022-09-28T07:20:00.808Z,0.82
2022-09-28T07:25:12.968Z,0.57
2022-09-28T07:30:20.716Z,0.80
2022-09-28T07:35:28.366Z,0.68
2022-09-28T07:40:51.705Z,0.63
2022-09-28T07:45:59.281Z,0.60
2022-09-28T07:51:08.258Z,0.80
2022-09-28T07:56:21.287Z,0.93
2022-09-28T08:01:31.374Z,1.30
2022-09-28T08:06:40.565Z,1.65
2022-09-28T08:11:51.114Z,2.50
2022-09-28T08:16:58.709Z,2.38
2022-09-28T08:22:06.928Z,1.75
2022-09-28T08:27:19.380Z,1.58
2022-09-28T08:32:26.994Z,1.25
2022-09-28T08:37:35.432Z,1.10
2022-09-28T08:42:48.460Z,3.38
2022-09-28T08:48:16.464Z,2.03
2022-09-28T08:53:37.092Z,1.60
2022-09-28T08:58:58.245Z,1.10
2022-09-28T09:04:07.930Z,1.38
2022-09-28T09:09:26.581Z,1.15
2022-09-28T09:14:53.101Z,0.90
2022-09-28T09:20:12.607Z,1.08
2022-09-28T09:25:27.469Z,1.23
2022-09-28T09:30:49.646Z,1.27
2022-09-28T09:36:20.523Z,1.05
2022-09-28T09:41:42.684Z,1.10
2022-09-28T09:46:59.015Z,1.15
2022-09-28T09:52:14.722Z,0.98
2022-09-28T09:57:24.736Z,0.93
2022-09-28T10:02:37.595Z,0.95
2022-09-28T10:07:49.457Z,0.95
2022-09-28T10:12:57.355Z,0.80
2022-09-28T10:18:12.812Z,0.80
2022-09-28T10:23:25.607Z,0.80
2022-09-28T10:28:38.453Z,1.00
2022-09-28T10:33:48.886Z,0.90
2022-09-28T10:38:57.647Z,0.93
2022-09-28T10:44:11.175Z,1.00
2022-09-28T10:49:26.952Z,0.90
2022-09-28T10:54:34.970Z,1.00
2022-09-28T10:59:45.001Z,1.10
2022-09-28T11:04:59.014Z,1.42
2022-09-28T11:10:06.984Z,1.30
2022-09-28T11:15:22.825Z,1.10
2022-09-28T11:20:37.952Z,1.30
